Hatch, Utah
Current Conditions -  °F | °C
As of 7:53 AM on Monday 24 Nov 2014 (Local Time) from KBCE Reporting Station
Few Clouds Few Clouds  
Wind Chill: 13°   Ceiling: Unl
Heat Index: 25°   Visibility: 10mi
Dew Point:   Wind: 14mph
Humidity: 46%   Direction: 300°WNW
Pressure: 30.24"   Gusts: 20mph
Location:  37.65°N, 112.43°W
Report Text: KBCE 241453Z AUTO 30012G17KT 10SM FEW055 M04/M14 A3024 RMK AO2 SLP244 T10391139 51015
Loading
Personal Weather Stations






























Interactive Weather Map New forecast layout! Learn more

10-Day Weather Forecast

Advertisements
Track Severe Weather on mobile